Авиационная погода в Атырау

Регион: 
Погода METAR: 
UATG 271500Z 23007MPS 0700 R14/1600N FG VV001 01/01 Q1009 R14/29//60 NOSIG RMK QBB050 QFE759/1012
Время наблюдения
2021-02-27T15:00:00Z
Температура C
1.0
Точка росы
1.0
Направление ветра
230
Скорость ветра (узлы)
14
Метео видимость
0.43
Явления погоды
FG
Условия полета
LIFR